createdAt,value
2023-02-28T00:00:39.991Z,44.70
2023-02-28T00:03:07.170Z,45.29
2023-02-28T00:05:34.458Z,44.83
2023-02-28T00:08:01.444Z,45.26
2023-02-28T00:10:30.908Z,47.15
2023-02-28T00:13:02.951Z,47.10
2023-02-28T00:15:29.785Z,47.05
2023-02-28T00:17:56.553Z,48.10
2023-02-28T00:20:24.060Z,47.15
2023-02-28T00:22:53.132Z,48.63
2023-02-28T00:25:22.156Z,49.39
2023-02-28T00:27:49.784Z,50.28
2023-02-28T00:30:22.084Z,50.54
2023-02-28T00:32:49.563Z,50.85
2023-02-28T00:35:17.121Z,50.31
2023-02-28T00:37:44.308Z,52.13
2023-02-28T00:40:13.066Z,51.29
2023-02-28T00:42:40.695Z,50.51
2023-02-28T00:45:09.397Z,50.50
2023-02-28T00:47:38.691Z,50.52
2023-02-28T00:50:06.460Z,51.16
2023-02-28T00:52:33.237Z,51.17
2023-02-28T00:55:00.142Z,49.23
2023-02-28T00:57:27.412Z,50.33
2023-02-28T00:59:56.844Z,50.86
2023-02-28T01:02:24.291Z,51.15
2023-02-28T01:04:53.356Z,51.45
2023-02-28T01:07:20.222Z,50.33
2023-02-28T01:09:47.079Z,49.63
2023-02-28T01:12:13.894Z,50.59
2023-02-28T01:14:40.689Z,49.86
2023-02-28T01:17:08.009Z,49.97
2023-02-28T01:19:35.544Z,48.99
2023-02-28T01:22:04.542Z,48.97
2023-02-28T01:24:33.221Z,49.04
2023-02-28T01:27:00.975Z,48.35
2023-02-28T01:29:27.817Z,48.69
2023-02-28T01:31:54.757Z,48.00
2023-02-28T01:34:21.547Z,47.66
2023-02-28T01:36:48.280Z,46.61
2023-02-28T01:39:15.368Z,46.12
2023-02-28T01:41:42.574Z,46.11
2023-02-28T01:44:46.953Z,45.71
2023-02-28T01:47:14.142Z,45.70
2023-02-28T01:49:40.947Z,45.40
2023-02-28T01:52:08.165Z,45.51
2023-02-28T01:54:36.052Z,45.76
2023-02-28T01:57:17.826Z,45.80
2023-02-28T02:00:02.045Z,45.61
2023-02-28T02:02:30.260Z,45.41
2023-02-28T02:05:05.854Z,45.75
2023-02-28T02:07:38.873Z,45.63
2023-02-28T02:10:22.811Z,45.78
2023-02-28T02:13:05.737Z,46.60
2023-02-28T02:15:40.875Z,46.54
2023-02-28T02:18:36.604Z,46.64
2023-02-28T02:21:28.304Z,45.46
2023-02-28T02:24:23.004Z,46.02
2023-02-28T02:27:24.699Z,45.92
2023-02-28T02:30:13.153Z,46.03
2023-02-28T02:32:45.640Z,46.34
2023-02-28T02:35:24.310Z,45.62
2023-02-28T02:38:02.945Z,45.49
2023-02-28T02:40:39.033Z,45.91
2023-02-28T02:43:08.731Z,45.97
2023-02-28T02:45:43.244Z,46.63
2023-02-28T02:48:14.764Z,45.84
2023-02-28T02:50:47.215Z,46.82
2023-02-28T02:53:16.700Z,45.55
2023-02-28T02:55:48.532Z,45.39
2023-02-28T02:58:19.971Z,45.35
2023-02-28T03:00:54.875Z,45.81
2023-02-28T03:03:29.720Z,46.10
2023-02-28T03:06:04.147Z,46.08
2023-02-28T03:08:36.876Z,45.39
2023-02-28T03:11:09.744Z,45.83
2023-02-28T03:13:52.151Z,45.74
2023-02-28T03:16:58.223Z,45.34
2023-02-28T03:20:08.425Z,45.15
2023-02-28T03:23:29.009Z,45.23
2023-02-28T03:26:18.412Z,45.40
2023-02-28T03:28:57.947Z,45.48
2023-02-28T03:31:28.726Z,46.13
2023-02-28T03:34:07.588Z,45.42
2023-02-28T03:36:44.658Z,45.94
2023-02-28T03:39:43.983Z,46.31
2023-02-28T03:42:16.474Z,46.21
2023-02-28T03:44:55.624Z,45.88
2023-02-28T03:47:28.906Z,45.83
2023-02-28T03:50:02.604Z,45.90
2023-02-28T03:52:36.354Z,46.41
2023-02-28T03:55:10.740Z,45.55
2023-02-28T03:57:51.413Z,45.48
2023-02-28T04:00:27.540Z,46.01
2023-02-28T04:02:54.972Z,45.45
2023-02-28T04:05:22.768Z,45.94
2023-02-28T04:07:50.017Z,45.87
2023-02-28T04:10:17.848Z,46.39
2023-02-28T04:12:44.590Z,45.79
2023-02-28T04:15:12.374Z,45.57
2023-02-28T04:17:39.270Z,45.43
2023-02-28T04:20:10.529Z,45.15
2023-02-28T04:22:38.368Z,44.95
2023-02-28T04:25:06.736Z,44.97
2023-02-28T04:27:33.778Z,44.65
2023-02-28T04:30:00.779Z,44.99
2023-02-28T04:32:27.541Z,44.99
2023-02-28T04:34:54.380Z,44.92
2023-02-28T04:37:21.481Z,45.15
2023-02-28T04:39:48.184Z,45.37
2023-02-28T04:42:15.512Z,45.03
2023-02-28T04:44:42.421Z,45.25
2023-02-28T04:47:09.174Z,45.25
2023-02-28T04:49:35.915Z,45.36
2023-02-28T04:52:02.959Z,45.16
2023-02-28T04:54:30.193Z,45.57
2023-02-28T04:56:57.119Z,45.52
2023-02-28T04:59:23.946Z,45.62
2023-02-28T05:01:50.707Z,45.48
2023-02-28T05:04:17.478Z,45.33
2023-02-28T05:06:44.452Z,45.64
2023-02-28T05:09:14.136Z,45.78
2023-02-28T05:11:41.615Z,45.39
2023-02-28T05:14:12.896Z,45.57
2023-02-28T05:16:40.381Z,45.28
2023-02-28T05:19:07.146Z,45.23
2023-02-28T05:21:42.590Z,45.30
2023-02-28T05:24:13.057Z,45.15
2023-02-28T05:26:42.465Z,45.30
2023-02-28T05:29:10.336Z,44.88
2023-02-28T05:31:37.468Z,45.09
2023-02-28T05:34:07.391Z,45.27
2023-02-28T05:36:34.296Z,45.22
2023-02-28T05:39:01.009Z,45.19
2023-02-28T05:41:28.374Z,45.26
2023-02-28T05:43:55.416Z,45.38
2023-02-28T05:46:22.400Z,45.20
2023-02-28T05:48:49.898Z,45.31
2023-02-28T05:51:17.023Z,45.08
2023-02-28T05:53:43.892Z,45.37
2023-02-28T05:56:10.861Z,45.45
2023-02-28T05:58:37.617Z,45.14
2023-02-28T06:01:32.820Z,45.23
2023-02-28T06:04:01.671Z,45.57
2023-02-28T06:06:28.634Z,45.47
2023-02-28T06:09:06.818Z,45.47
2023-02-28T06:11:34.413Z,45.83
2023-02-28T06:14:02.300Z,45.43
2023-02-28T06:16:30.425Z,45.30
2023-02-28T06:19:01.758Z,45.48
2023-02-28T06:21:29.830Z,45.49
2023-02-28T06:23:58.737Z,44.80
2023-02-28T06:26:26.071Z,44.91
2023-02-28T06:28:53.074Z,45.04
2023-02-28T06:31:20.090Z,45.04
2023-02-28T06:33:47.668Z,45.03
2023-02-28T06:36:16.804Z,45.00
2023-02-28T06:38:44.441Z,44.59
2023-02-28T06:41:12.353Z,44.51
2023-02-28T06:43:43.229Z,44.74
2023-02-28T06:46:13.420Z,44.61
2023-02-28T06:48:40.509Z,44.56
2023-02-28T06:51:10.811Z,45.20
2023-02-28T06:53:38.072Z,44.84
2023-02-28T06:56:09.778Z,45.11
2023-02-28T06:58:37.141Z,45.48
2023-02-28T07:01:04.776Z,45.01
2023-02-28T07:03:34.354Z,45.00
2023-02-28T07:06:02.075Z,45.27
2023-02-28T07:08:28.893Z,45.18
2023-02-28T07:10:56.983Z,45.07
2023-02-28T07:13:24.349Z,44.89
2023-02-28T07:15:55.658Z,45.61
2023-02-28T07:18:22.869Z,45.72
2023-02-28T07:20:49.688Z,45.77
2023-02-28T07:23:16.988Z,45.33
2023-02-28T07:25:43.736Z,45.79
2023-02-28T07:28:10.562Z,45.88
2023-02-28T07:30:37.439Z,45.50
2023-02-28T07:33:04.920Z,45.29
2023-02-28T07:35:32.056Z,45.66
2023-02-28T07:38:00.199Z,45.44
2023-02-28T07:40:27.507Z,45.11
2023-02-28T07:42:54.342Z,45.49
2023-02-28T07:45:22.083Z,45.61
2023-02-28T07:47:51.430Z,45.66
2023-02-28T07:50:18.423Z,45.49
2023-02-28T07:52:45.339Z,45.48
2023-02-28T07:55:12.192Z,45.82
2023-02-28T07:57:38.881Z,45.66
2023-02-28T08:00:07.182Z,45.97
2023-02-28T08:02:38.409Z,46.97
2023-02-28T08:05:06.575Z,47.83
2023-02-28T08:07:34.423Z,48.22
2023-02-28T08:10:01.230Z,48.46
2023-02-28T08:12:28.152Z,49.06
2023-02-28T08:14:54.870Z,49.13
2023-02-28T08:17:21.702Z,49.61
2023-02-28T08:19:48.599Z,50.21
2023-02-28T08:22:15.484Z,49.22
2023-02-28T08:24:43.853Z,49.84
2023-02-28T08:27:11.431Z,49.41
2023-02-28T08:29:39.384Z,48.10
2023-02-28T08:32:14.487Z,48.11
2023-02-28T08:34:48.189Z,47.99
2023-02-28T08:37:14.991Z,47.65
2023-02-28T08:39:41.850Z,46.96
2023-02-28T08:42:08.686Z,47.27
2023-02-28T08:44:35.630Z,47.57
2023-02-28T08:47:02.364Z,47.38
2023-02-28T08:49:29.632Z,47.07
2023-02-28T08:51:58.212Z,46.90
2023-02-28T08:54:25.498Z,46.33
2023-02-28T08:56:52.325Z,46.44
2023-02-28T08:59:19.145Z,46.74
2023-02-28T09:01:46.029Z,46.24
2023-02-28T09:04:14.489Z,46.03
2023-02-28T09:06:45.452Z,45.72
2023-02-28T09:09:12.408Z,46.72
2023-02-28T09:11:39.362Z,47.26
2023-02-28T09:14:06.114Z,47.04
2023-02-28T09:16:34.826Z,46.47
2023-02-28T09:19:02.673Z,46.03
2023-02-28T09:21:29.854Z,45.99
2023-02-28T09:23:56.899Z,49.07
2023-02-28T09:26:26.411Z,47.05
2023-02-28T09:28:55.560Z,45.68
2023-02-28T09:31:26.094Z,45.47
2023-02-28T09:33:55.118Z,45.28
2023-02-28T09:36:28.945Z,45.32
2023-02-28T09:38:58.439Z,45.08
2023-02-28T09:41:32.013Z,44.87
2023-02-28T09:44:03.830Z,44.98
2023-02-28T09:46:44.214Z,45.40
2023-02-28T09:49:23.703Z,44.88
2023-02-28T09:52:10.136Z,44.86
2023-02-28T09:54:37.819Z,44.95
2023-02-28T09:57:41.195Z,45.28
2023-02-28T10:00:20.367Z,44.20
2023-02-28T10:02:55.799Z,44.06
2023-02-28T10:05:39.531Z,43.55
2023-02-28T10:08:22.117Z,43.60
2023-02-28T10:10:56.795Z,43.24
2023-02-28T10:13:41.570Z,43.23
2023-02-28T10:16:34.884Z,43.16
2023-02-28T10:19:21.196Z,42.89
2023-02-28T10:22:04.613Z,43.86
2023-02-28T10:24:34.387Z,43.19
2023-02-28T10:27:19.804Z,43.26
2023-02-28T10:29:54.516Z,42.74
2023-02-28T10:32:25.520Z,43.23
2023-02-28T10:35:00.563Z,42.64
2023-02-28T10:37:28.523Z,42.85
2023-02-28T10:39:55.382Z,42.52
2023-02-28T10:42:27.014Z,41.87
2023-02-28T10:45:16.774Z,41.48
2023-02-28T10:47:57.813Z,40.55
2023-02-28T10:50:30.696Z,40.31
2023-02-28T10:53:11.527Z,40.72
2023-02-28T10:55:38.615Z,39.92
2023-02-28T10:58:22.481Z,40.13
2023-02-28T11:00:49.478Z,39.99
2023-02-28T11:03:26.423Z,40.35
2023-02-28T11:05:53.255Z,40.22
2023-02-28T11:08:20.025Z,40.40
2023-02-28T11:10:59.137Z,39.96
2023-02-28T11:13:31.737Z,40.04
2023-02-28T11:16:01.648Z,40.13
2023-02-28T11:18:41.510Z,39.97
2023-02-28T11:21:10.342Z,39.48
2023-02-28T11:23:41.647Z,39.34
2023-02-28T11:26:12.099Z,39.62
2023-02-28T11:28:43.070Z,39.89
2023-02-28T11:31:12.940Z,39.61
2023-02-28T11:33:52.281Z,39.47
2023-02-28T11:36:25.752Z,38.95
2023-02-28T11:38:54.847Z,39.47
2023-02-28T11:41:46.393Z,39.40
2023-02-28T11:44:15.838Z,38.97
2023-02-28T11:46:56.163Z,41.96
2023-02-28T11:49:36.788Z,39.48
2023-02-28T11:52:09.734Z,38.88
2023-02-28T11:54:57.949Z,38.56
2023-02-28T11:57:33.450Z,38.58
2023-02-28T12:00:09.235Z,38.34
2023-02-28T12:03:15.724Z,38.48
2023-02-28T12:05:47.231Z,38.54
2023-02-28T12:08:16.856Z,38.61
2023-02-28T12:11:00.247Z,38.21
2023-02-28T12:13:38.979Z,38.82
2023-02-28T12:16:31.283Z,38.74
2023-02-28T12:19:07.334Z,38.95
2023-02-28T12:22:07.689Z,38.97
2023-02-28T12:25:21.774Z,38.76
2023-02-28T12:27:50.112Z,38.75
2023-02-28T12:30:33.792Z,38.35
2023-02-28T12:33:17.918Z,38.56
2023-02-28T12:35:44.676Z,38.13
2023-02-28T12:38:14.271Z,38.63
2023-02-28T12:41:05.093Z,38.53
2023-02-28T12:43:51.271Z,38.41
2023-02-28T12:46:26.476Z,38.71
2023-02-28T12:49:13.138Z,38.60
2023-02-28T12:51:40.732Z,38.37
2023-02-28T12:54:35.188Z,38.07
2023-02-28T12:57:14.926Z,37.86
2023-02-28T12:59:55.271Z,38.05
2023-02-28T13:02:34.251Z,37.72
2023-02-28T13:05:06.824Z,38.03
2023-02-28T13:08:03.194Z,37.55
2023-02-28T13:11:00.098Z,37.98
2023-02-28T13:13:30.849Z,37.23
2023-02-28T13:16:00.926Z,37.58
2023-02-28T13:18:44.732Z,37.20
2023-02-28T13:21:28.607Z,37.21
2023-02-28T13:24:03.704Z,36.70
2023-02-28T13:26:39.332Z,36.71
2023-02-28T13:29:12.160Z,36.67
2023-02-28T13:32:07.018Z,36.83
2023-02-28T13:34:34.524Z,36.86
2023-02-28T13:37:35.825Z,36.64
2023-02-28T13:40:11.437Z,36.42
2023-02-28T13:42:50.668Z,36.65
2023-02-28T13:45:30.911Z,36.10
2023-02-28T13:48:04.633Z,36.01
2023-02-28T13:50:38.830Z,35.80
2023-02-28T13:53:28.738Z,35.80
2023-02-28T13:56:05.509Z,35.82
2023-02-28T13:58:58.292Z,35.60
2023-02-28T14:01:44.550Z,36.10
2023-02-28T14:04:40.643Z,35.39
2023-02-28T14:07:09.677Z,35.19
2023-02-28T14:09:45.980Z,34.88
2023-02-28T14:12:50.150Z,35.01
2023-02-28T14:15:37.894Z,35.15
2023-02-28T14:18:15.479Z,35.00
2023-02-28T14:20:44.705Z,35.04
2023-02-28T14:23:37.414Z,34.82
2023-02-28T14:26:26.753Z,34.63
2023-02-28T14:29:23.397Z,34.96
2023-02-28T14:32:02.834Z,34.96
2023-02-28T14:34:51.909Z,34.24
2023-02-28T14:37:25.508Z,34.09
2023-02-28T14:39:52.561Z,33.95
2023-02-28T14:42:42.640Z,33.99
2023-02-28T14:45:19.667Z,34.23
2023-02-28T14:47:46.700Z,34.00
2023-02-28T14:50:39.326Z,34.10
2023-02-28T14:53:16.528Z,34.24
2023-02-28T14:55:47.120Z,34.83
2023-02-28T14:58:31.927Z,34.47
2023-02-28T15:01:03.586Z,34.21
2023-02-28T15:03:39.078Z,34.63
2023-02-28T15:06:18.846Z,34.36
2023-02-28T15:08:46.541Z,34.26
2023-02-28T15:11:20.212Z,34.09
2023-02-28T15:13:58.153Z,34.17
2023-02-28T15:16:33.324Z,34.22
2023-02-28T15:19:14.104Z,33.83
2023-02-28T15:21:46.068Z,33.77
2023-02-28T15:24:15.761Z,33.65
2023-02-28T15:26:47.011Z,34.30
2023-02-28T15:29:21.475Z,33.54
2023-02-28T15:31:58.451Z,33.93
2023-02-28T15:34:42.306Z,33.44
2023-02-28T15:37:31.923Z,33.39
2023-02-28T15:40:06.501Z,33.81
2023-02-28T15:42:33.349Z,34.20
2023-02-28T15:45:00.840Z,33.61
2023-02-28T15:47:30.282Z,33.49
2023-02-28T15:50:05.205Z,34.21
2023-02-28T15:52:41.723Z,34.05
2023-02-28T15:55:22.669Z,34.14
2023-02-28T15:57:54.158Z,33.96
2023-02-28T16:00:24.380Z,33.87
2023-02-28T16:02:52.229Z,33.26
2023-02-28T16:05:28.925Z,33.63
2023-02-28T16:07:59.664Z,34.09
2023-02-28T16:10:28.651Z,33.71
2023-02-28T16:12:57.081Z,33.49
2023-02-28T16:15:27.171Z,33.36
2023-02-28T16:17:55.172Z,33.44
2023-02-28T16:20:25.121Z,33.91
2023-02-28T16:22:52.332Z,34.32
2023-02-28T16:25:24.113Z,33.82
2023-02-28T16:27:54.930Z,34.19
2023-02-28T16:30:25.937Z,34.01
2023-02-28T16:32:55.234Z,33.56
2023-02-28T16:35:22.917Z,33.37
2023-02-28T16:37:52.212Z,32.97
2023-02-28T16:40:22.467Z,33.21
2023-02-28T16:42:51.531Z,33.87
2023-02-28T16:45:24.799Z,33.74
2023-02-28T16:47:51.595Z,33.37
2023-02-28T16:50:21.287Z,33.82
2023-02-28T16:52:49.037Z,33.75
2023-02-28T16:55:16.547Z,33.66
2023-02-28T16:57:44.109Z,33.68
2023-02-28T17:00:14.166Z,34.25
2023-02-28T17:02:42.718Z,34.11
2023-02-28T17:05:12.979Z,34.35
2023-02-28T17:07:40.770Z,34.01
2023-02-28T17:10:27.604Z,34.10
2023-02-28T17:12:58.406Z,34.09
2023-02-28T17:15:30.660Z,34.61
2023-02-28T17:17:58.466Z,34.63
2023-02-28T17:20:25.749Z,34.51
2023-02-28T17:22:52.537Z,34.24
2023-02-28T17:25:19.820Z,34.57
2023-02-28T17:27:46.654Z,34.54
2023-02-28T17:30:20.858Z,34.67
2023-02-28T17:32:47.935Z,35.04
2023-02-28T17:35:14.994Z,34.79
2023-02-28T17:37:42.768Z,34.83
2023-02-28T17:40:23.087Z,34.83
2023-02-28T17:42:50.285Z,35.36
2023-02-28T17:45:17.178Z,34.86
2023-02-28T17:47:47.975Z,34.77
2023-02-28T17:50:17.927Z,34.70
2023-02-28T17:52:44.659Z,34.51
2023-02-28T17:55:12.654Z,34.43
2023-02-28T17:57:39.802Z,34.82
2023-02-28T18:00:07.787Z,34.11
2023-02-28T18:02:38.410Z,34.43
2023-02-28T18:05:05.770Z,34.42
2023-02-28T18:07:32.628Z,34.75
2023-02-28T18:09:59.358Z,34.49
2023-02-28T18:12:26.502Z,34.69
2023-02-28T18:14:53.252Z,34.48
2023-02-28T18:17:19.988Z,34.62
2023-02-28T18:19:46.699Z,34.66
2023-02-28T18:22:13.460Z,34.88
2023-02-28T18:24:41.007Z,34.54
2023-02-28T18:27:07.819Z,34.63
2023-02-28T18:29:34.679Z,34.83
2023-02-28T18:32:02.440Z,34.94
2023-02-28T18:34:30.652Z,34.78
2023-02-28T18:36:57.953Z,34.99
2023-02-28T18:39:24.711Z,35.12
2023-02-28T18:41:51.474Z,34.90
2023-02-28T18:44:21.133Z,35.31
2023-02-28T18:46:49.729Z,35.20
2023-02-28T18:49:17.379Z,35.02
2023-02-28T18:51:45.541Z,35.17
2023-02-28T18:54:14.254Z,35.62
2023-02-28T18:56:41.261Z,35.27
2023-02-28T18:59:08.071Z,35.37
2023-02-28T19:01:35.115Z,35.48
2023-02-28T19:04:03.657Z,35.74
2023-02-28T19:06:32.876Z,35.69
2023-02-28T19:09:03.818Z,35.75
2023-02-28T19:11:31.195Z,35.54
2023-02-28T19:13:58.411Z,35.53
2023-02-28T19:16:25.336Z,35.55
2023-02-28T19:18:52.289Z,35.61
2023-02-28T19:21:21.480Z,35.62
2023-02-28T19:23:48.515Z,36.16
2023-02-28T19:26:21.504Z,36.65
2023-02-28T19:28:49.022Z,37.22
2023-02-28T19:31:24.405Z,37.10
2023-02-28T19:33:54.300Z,36.81
2023-02-28T19:36:22.051Z,37.12
2023-02-28T19:38:49.189Z,36.85
2023-02-28T19:41:17.238Z,36.79
2023-02-28T19:43:44.430Z,36.46
2023-02-28T19:46:12.074Z,36.64
2023-02-28T19:48:39.416Z,36.35
2023-02-28T19:51:09.754Z,36.37
2023-02-28T19:53:38.058Z,36.58
2023-02-28T19:56:06.037Z,37.15
2023-02-28T19:58:34.171Z,37.28
2023-02-28T20:01:13.458Z,36.89
2023-02-28T20:03:40.651Z,36.61
2023-02-28T20:06:10.374Z,36.18
2023-02-28T20:08:38.537Z,36.29
2023-02-28T20:11:11.570Z,35.91
2023-02-28T20:13:38.867Z,36.08
2023-02-28T20:16:09.640Z,35.79
2023-02-28T20:18:38.138Z,36.18
2023-02-28T20:21:05.416Z,36.18
2023-02-28T20:23:32.223Z,35.87
2023-02-28T20:26:02.889Z,35.77
2023-02-28T20:28:29.709Z,35.88
2023-02-28T20:30:56.769Z,36.11
2023-02-28T20:33:23.776Z,36.05
2023-02-28T20:35:52.854Z,36.13
2023-02-28T20:38:20.282Z,36.55
2023-02-28T20:40:47.088Z,36.73
2023-02-28T20:43:13.859Z,37.06
2023-02-28T20:45:40.660Z,36.96
2023-02-28T20:48:07.545Z,36.92
2023-02-28T20:50:34.346Z,37.15
2023-02-28T20:53:01.071Z,37.21
2023-02-28T20:55:27.859Z,37.55
2023-02-28T20:57:55.130Z,37.70
2023-02-28T21:00:22.667Z,37.50
2023-02-28T21:02:49.416Z,37.91
2023-02-28T21:05:17.124Z,38.26
2023-02-28T21:07:43.837Z,38.34
2023-02-28T21:10:11.309Z,37.84
2023-02-28T21:12:38.079Z,38.56
2023-02-28T21:15:05.226Z,38.43
2023-02-28T21:17:31.968Z,38.70
2023-02-28T21:19:58.777Z,38.86
2023-02-28T21:22:25.552Z,38.75
2023-02-28T21:24:52.331Z,38.86
2023-02-28T21:27:19.153Z,39.13
2023-02-28T21:29:45.954Z,39.20
2023-02-28T21:32:14.600Z,39.19
2023-02-28T21:34:41.829Z,39.78
2023-02-28T21:37:08.695Z,39.54
2023-02-28T21:39:35.854Z,39.33
2023-02-28T21:42:04.192Z,39.41
2023-02-28T21:44:32.434Z,40.00
2023-02-28T21:47:02.185Z,39.81
2023-02-28T21:49:29.783Z,39.76
2023-02-28T21:51:57.692Z,39.92
2023-02-28T21:54:25.136Z,39.97
2023-02-28T21:56:52.197Z,40.21
2023-02-28T21:59:19.547Z,40.13
2023-02-28T22:01:48.646Z,40.10
2023-02-28T22:04:23.419Z,40.34
2023-02-28T22:06:53.021Z,40.39
2023-02-28T22:09:20.276Z,40.23
2023-02-28T22:11:47.432Z,40.23
2023-02-28T22:14:14.788Z,40.06
2023-02-28T22:16:51.465Z,39.95
2023-02-28T22:19:20.866Z,40.35
2023-02-28T22:21:48.233Z,40.10
2023-02-28T22:24:17.822Z,40.62
2023-02-28T22:26:45.173Z,40.15
2023-02-28T22:29:11.961Z,39.98
2023-02-28T22:31:38.875Z,40.06
2023-02-28T22:34:11.080Z,40.34
2023-02-28T22:36:37.780Z,40.09
2023-02-28T22:39:05.107Z,40.54
2023-02-28T22:41:32.511Z,40.17
2023-02-28T22:44:01.944Z,40.52
2023-02-28T22:46:31.307Z,40.43
2023-02-28T22:48:59.599Z,40.39
2023-02-28T22:51:27.915Z,40.49
2023-02-28T22:53:56.346Z,40.32
2023-02-28T22:56:25.859Z,40.27
2023-02-28T22:58:55.092Z,40.28
2023-02-28T23:01:24.387Z,39.88
2023-02-28T23:03:51.896Z,40.19
2023-02-28T23:06:31.368Z,39.99
2023-02-28T23:09:00.890Z,39.97
2023-02-28T23:11:31.516Z,40.42
2023-02-28T23:13:58.810Z,40.26
2023-02-28T23:16:31.626Z,40.19
2023-02-28T23:19:00.246Z,39.98
2023-02-28T23:21:28.041Z,39.98
2023-02-28T23:23:55.418Z,40.69
2023-02-28T23:26:22.642Z,40.12
2023-02-28T23:28:49.710Z,40.13
2023-02-28T23:31:16.560Z,40.02
2023-02-28T23:33:43.406Z,40.29
2023-02-28T23:36:11.915Z,40.39
2023-02-28T23:38:39.993Z,40.53
2023-02-28T23:41:11.451Z,40.38
2023-02-28T23:43:40.473Z,40.35
2023-02-28T23:46:08.482Z,40.07
2023-02-28T23:48:35.430Z,40.82
2023-02-28T23:51:08.357Z,40.38
2023-02-28T23:53:40.755Z,40.23
2023-02-28T23:56:09.848Z,40.51
2023-02-28T23:58:37.087Z,40.98
